Hastings, NE

5:18 AM CDT on March 24, 2017 (GMT -0500)
Hastings Municipal | | Change Station

Elev 1959 ft 40.60 °N, 98.43 °W | Updated 4 minutes ago

Overcast
Overcast
54 °F
Feels Like 54 °F
N
13
Wind Variable Wind from ENE

Today
High -- | Low -- °F
--% Chance of Precip.
Yesterday
High -- | Low -- °F
Precip. -- in
Pressure 29.73 in
Visibility 10.0 miles
Clouds Scattered Clouds 600 ft
Overcast 6000 ft
Dew Point 52 °F
Humidity 93%
Rainfall 0.12 in
Snow Depth Not available.
7:29 AM 7:50 PM
Waning Crescent, 16% visible
SPECI KHSI 241014Z AUTO 06011KT 10SM SCT006 OVC060 12/11 A2973 RMK AO2 T01220111
Pressure 29.73 in
Visibility 10.0 miles
Clouds Scattered Clouds 600 ft
Overcast 6000 ft
Dew Point 52 °F
Humidity 93%
Rainfall 0.12 in
Snow Depth Not available.
7:29 AM 7:50 PM
Waning Crescent, 16% visible
SPECI KHSI 241014Z AUTO 06011KT 10SM SCT006 OVC060 12/11 A2973 RMK AO2 T01220111

Get Severe Weather Alerts

Thanks for signing up!

Be on the lookout for a verification email in your inbox.

You'll start receiving the daily forecast at 8 AM.

×

10-Day Weather Forecast

Almanac

Astronomy

Mar. 24, 2017 Rise Set
Actual Time
Civil Twilight
Nautical Twilight
Astronomical Twilight
Moon
Length of Visible Light
Length of Day
Tomorrow will be .
, % of the Moon is Illuminated

Today's Extremes

State Highs State Lows

Community

WunderPhotos

Upload Photos

1,962,540 photos uploaded!

WunderBlog® & News

Nearby

Air Quality

  Air Quality AQ Index Pollutant
Not available.

Snow Depth

Station Depth Elevation

Earthquake Activity

City Distance Mag. Time & Date
Minimum magnitude displayed is 2.5.

Earthquake Activity

City Distance Mag. Time & Date
Minimum magnitude displayed is 2.5.

Coastal Water Temperatures

Place Temperature

Stations

Nearby Weather Stations

Station Location Temp. Windchill Dew Point Humidity Wind Precip. Elev Updated Type
                   

Watches & Warnings

There are currently no watches in effect.